sensor_id;sensor_type;location;lat;lon;timestamp;temperature;humidity
19829;DHT22;10075;50.924;4.396;2023-12-20T00:00:30;7.30;99.90
19829;DHT22;10075;50.924;4.396;2023-12-20T00:02:57;7.30;99.90
19829;DHT22;10075;50.924;4.396;2023-12-20T00:05:23;7.20;99.90
19829;DHT22;10075;50.924;4.396;2023-12-20T00:07:50;7.30;99.90
19829;DHT22;10075;50.924;4.396;2023-12-20T00:10:17;7.10;99.90
19829;DHT22;10075;50.924;4.396;2023-12-20T00:12:44;7.20;99.90
19829;DHT22;10075;50.924;4.396;2023-12-20T00:15:11;7.10;99.90
19829;DHT22;10075;50.924;4.396;2023-12-20T00:17:39;7.20;99.90
19829;DHT22;10075;50.924;4.396;2023-12-20T00:20:07;7.20;99.90
19829;DHT22;10075;50.924;4.396;2023-12-20T00:22:34;7.20;99.90
19829;DHT22;10075;50.924;4.396;2023-12-20T00:25:01;7.10;99.90
19829;DHT22;10075;50.924;4.396;2023-12-20T00:27:28;7.10;99.90
19829;DHT22;10075;50.924;4.396;2023-12-20T00:29:55;7.20;99.90
19829;DHT22;10075;50.924;4.396;2023-12-20T00:32:22;7.20;99.90
19829;DHT22;10075;50.924;4.396;2023-12-20T00:34:50;7.10;99.90
19829;DHT22;10075;50.924;4.396;2023-12-20T00:37:17;7.00;99.90
19829;DHT22;10075;50.924;4.396;2023-12-20T00:39:44;7.00;99.90
19829;DHT22;10075;50.924;4.396;2023-12-20T00:42:11;6.90;99.90
19829;DHT22;10075;50.924;4.396;2023-12-20T00:44:38;6.90;99.90
19829;DHT22;10075;50.924;4.396;2023-12-20T00:47:04;6.90;99.90
19829;DHT22;10075;50.924;4.396;2023-12-20T00:49:31;6.80;99.90
19829;DHT22;10075;50.924;4.396;2023-12-20T00:52:00;6.70;99.90
19829;DHT22;10075;50.924;4.396;2023-12-20T00:54:26;6.80;99.90
19829;DHT22;10075;50.924;4.396;2023-12-20T00:56:54;6.80;99.90
19829;DHT22;10075;50.924;4.396;2023-12-20T00:59:20;6.90;99.90
19829;DHT22;10075;50.924;4.396;2023-12-20T01:01:47;7.00;99.90
19829;DHT22;10075;50.924;4.396;2023-12-20T01:04:14;6.90;99.90
19829;DHT22;10075;50.924;4.396;2023-12-20T01:06:41;6.90;99.90
19829;DHT22;10075;50.924;4.396;2023-12-20T01:09:09;6.90;99.90
19829;DHT22;10075;50.924;4.396;2023-12-20T01:11:36;6.70;99.90
19829;DHT22;10075;50.924;4.396;2023-12-20T01:14:03;6.80;99.90
19829;DHT22;10075;50.924;4.396;2023-12-20T01:16:30;6.70;99.90
19829;DHT22;10075;50.924;4.396;2023-12-20T01:18:57;6.70;99.90
19829;DHT22;10075;50.924;4.396;2023-12-20T01:21:24;6.90;99.90
19829;DHT22;10075;50.924;4.396;2023-12-20T01:23:51;6.80;99.90
19829;DHT22;10075;50.924;4.396;2023-12-20T01:26:19;6.80;99.90
19829;DHT22;10075;50.924;4.396;2023-12-20T01:28:46;6.80;99.90
19829;DHT22;10075;50.924;4.396;2023-12-20T01:31:13;6.70;99.90
19829;DHT22;10075;50.924;4.396;2023-12-20T01:33:40;6.70;99.90
19829;DHT22;10075;50.924;4.396;2023-12-20T01:36:07;6.70;99.90
19829;DHT22;10075;50.924;4.396;2023-12-20T01:38:33;6.60;99.90
19829;DHT22;10075;50.924;4.396;2023-12-20T01:41:00;6.40;99.90
19829;DHT22;10075;50.924;4.396;2023-12-20T01:43:29;6.40;99.90
19829;DHT22;10075;50.924;4.396;2023-12-20T01:45:57;6.50;99.90
19829;DHT22;10075;50.924;4.396;2023-12-20T01:48:24;6.60;99.90
19829;DHT22;10075;50.924;4.396;2023-12-20T01:50:52;6.60;99.90
19829;DHT22;10075;50.924;4.396;2023-12-20T01:53:21;6.60;99.90
19829;DHT22;10075;50.924;4.396;2023-12-20T01:55:50;6.60;99.90
19829;DHT22;10075;50.924;4.396;2023-12-20T01:58:19;6.70;99.90
19829;DHT22;10075;50.924;4.396;2023-12-20T02:00:48;6.90;99.90
19829;DHT22;10075;50.924;4.396;2023-12-20T02:03:16;6.80;99.90
19829;DHT22;10075;50.924;4.396;2023-12-20T02:05:44;6.90;99.90
19829;DHT22;10075;50.924;4.396;2023-12-20T02:08:12;6.80;99.90
19829;DHT22;10075;50.924;4.396;2023-12-20T02:10:39;6.80;99.90
19829;DHT22;10075;50.924;4.396;2023-12-20T02:13:07;6.80;99.90
19829;DHT22;10075;50.924;4.396;2023-12-20T02:15:34;6.80;99.90
19829;DHT22;10075;50.924;4.396;2023-12-20T02:18:04;6.80;99.90
19829;DHT22;10075;50.924;4.396;2023-12-20T02:20:31;6.80;99.90
19829;DHT22;10075;50.924;4.396;2023-12-20T02:22:59;6.80;99.90
19829;DHT22;10075;50.924;4.396;2023-12-20T02:25:26;6.80;99.90
19829;DHT22;10075;50.924;4.396;2023-12-20T02:27:53;6.80;99.90
19829;DHT22;10075;50.924;4.396;2023-12-20T02:30:21;6.80;99.90
19829;DHT22;10075;50.924;4.396;2023-12-20T02:32:49;6.70;99.90
19829;DHT22;10075;50.924;4.396;2023-12-20T02:35:16;6.70;99.90
19829;DHT22;10075;50.924;4.396;2023-12-20T02:37:43;6.80;99.90
19829;DHT22;10075;50.924;4.396;2023-12-20T02:40:11;6.80;99.90
19829;DHT22;10075;50.924;4.396;2023-12-20T02:42:38;6.80;99.90
19829;DHT22;10075;50.924;4.396;2023-12-20T02:45:06;6.80;99.90
19829;DHT22;10075;50.924;4.396;2023-12-20T02:47:33;6.80;99.90
19829;DHT22;10075;50.924;4.396;2023-12-20T02:50:00;6.80;99.90
19829;DHT22;10075;50.924;4.396;2023-12-20T02:52:28;6.80;99.90
19829;DHT22;10075;50.924;4.396;2023-12-20T02:54:55;6.70;99.90
19829;DHT22;10075;50.924;4.396;2023-12-20T02:57:23;6.80;99.90
19829;DHT22;10075;50.924;4.396;2023-12-20T02:59:50;6.90;99.90
19829;DHT22;10075;50.924;4.396;2023-12-20T03:02:17;6.80;99.90
19829;DHT22;10075;50.924;4.396;2023-12-20T03:04:44;6.90;99.90
19829;DHT22;10075;50.924;4.396;2023-12-20T03:07:11;7.10;99.90
19829;DHT22;10075;50.924;4.396;2023-12-20T03:09:38;7.20;99.90
19829;DHT22;10075;50.924;4.396;2023-12-20T03:12:05;7.00;99.90
19829;DHT22;10075;50.924;4.396;2023-12-20T03:14:33;7.10;99.90
19829;DHT22;10075;50.924;4.396;2023-12-20T03:17:00;7.20;99.90
19829;DHT22;10075;50.924;4.396;2023-12-20T03:19:27;7.20;99.90
19829;DHT22;10075;50.924;4.396;2023-12-20T03:21:54;7.00;99.90
19829;DHT22;10075;50.924;4.396;2023-12-20T03:24:21;6.90;99.90
19829;DHT22;10075;50.924;4.396;2023-12-20T03:26:48;6.80;99.90
19829;DHT22;10075;50.924;4.396;2023-12-20T03:29:15;6.80;99.90
19829;DHT22;10075;50.924;4.396;2023-12-20T03:31:43;6.90;99.90
19829;DHT22;10075;50.924;4.396;2023-12-20T03:34:11;7.00;99.90
19829;DHT22;10075;50.924;4.396;2023-12-20T03:36:38;7.00;99.90
19829;DHT22;10075;50.924;4.396;2023-12-20T03:39:05;7.00;99.90
19829;DHT22;10075;50.924;4.396;2023-12-20T03:41:32;7.10;99.90
19829;DHT22;10075;50.924;4.396;2023-12-20T03:43:59;7.10;99.90
19829;DHT22;10075;50.924;4.396;2023-12-20T03:46:26;7.10;99.90
19829;DHT22;10075;50.924;4.396;2023-12-20T03:48:54;7.10;99.90
19829;DHT22;10075;50.924;4.396;2023-12-20T03:51:21;7.20;99.90
19829;DHT22;10075;50.924;4.396;2023-12-20T03:53:48;7.30;99.90
19829;DHT22;10075;50.924;4.396;2023-12-20T03:56:15;7.30;99.90
19829;DHT22;10075;50.924;4.396;2023-12-20T03:58:42;7.40;99.90
19829;DHT22;10075;50.924;4.396;2023-12-20T04:01:09;7.50;99.90
19829;DHT22;10075;50.924;4.396;2023-12-20T04:03:37;7.40;99.90
19829;DHT22;10075;50.924;4.396;2023-12-20T04:06:05;7.30;99.90
19829;DHT22;10075;50.924;4.396;2023-12-20T04:08:32;7.40;99.90
19829;DHT22;10075;50.924;4.396;2023-12-20T04:10:59;7.60;99.90
19829;DHT22;10075;50.924;4.396;2023-12-20T04:13:26;7.60;99.90
19829;DHT22;10075;50.924;4.396;2023-12-20T04:15:53;7.70;99.90
19829;DHT22;10075;50.924;4.396;2023-12-20T04:18:20;7.70;99.90
19829;DHT22;10075;50.924;4.396;2023-12-20T04:20:47;7.60;99.90
19829;DHT22;10075;50.924;4.396;2023-12-20T04:23:14;7.50;99.90
19829;DHT22;10075;50.924;4.396;2023-12-20T04:25:41;7.40;99.90
19829;DHT22;10075;50.924;4.396;2023-12-20T04:28:08;7.40;99.90
19829;DHT22;10075;50.924;4.396;2023-12-20T04:30:34;7.40;99.90
19829;DHT22;10075;50.924;4.396;2023-12-20T04:33:01;7.30;99.90
19829;DHT22;10075;50.924;4.396;2023-12-20T04:35:28;7.20;99.90
19829;DHT22;10075;50.924;4.396;2023-12-20T04:37:55;7.00;99.90
19829;DHT22;10075;50.924;4.396;2023-12-20T04:40:24;6.90;99.90
19829;DHT22;10075;50.924;4.396;2023-12-20T04:42:50;6.80;99.90
19829;DHT22;10075;50.924;4.396;2023-12-20T04:45:17;6.90;99.90
19829;DHT22;10075;50.924;4.396;2023-12-20T04:47:45;6.90;99.90
19829;DHT22;10075;50.924;4.396;2023-12-20T04:50:13;7.00;99.90
19829;DHT22;10075;50.924;4.396;2023-12-20T04:52:40;7.10;99.90
19829;DHT22;10075;50.924;4.396;2023-12-20T04:55:07;7.20;99.90
19829;DHT22;10075;50.924;4.396;2023-12-20T04:57:36;7.20;99.90
19829;DHT22;10075;50.924;4.396;2023-12-20T05:00:03;7.10;99.90
19829;DHT22;10075;50.924;4.396;2023-12-20T05:02:30;7.10;99.90
19829;DHT22;10075;50.924;4.396;2023-12-20T05:04:57;7.00;99.90
19829;DHT22;10075;50.924;4.396;2023-12-20T05:07:24;7.20;99.90
19829;DHT22;10075;50.924;4.396;2023-12-20T05:09:51;7.20;99.90
19829;DHT22;10075;50.924;4.396;2023-12-20T05:12:18;7.20;99.90
19829;DHT22;10075;50.924;4.396;2023-12-20T05:14:46;7.20;99.90
19829;DHT22;10075;50.924;4.396;2023-12-20T05:17:13;7.20;99.90
19829;DHT22;10075;50.924;4.396;2023-12-20T05:19:40;7.10;99.90
19829;DHT22;10075;50.924;4.396;2023-12-20T05:22:06;6.90;99.90
19829;DHT22;10075;50.924;4.396;2023-12-20T05:24:33;6.80;99.90
19829;DHT22;10075;50.924;4.396;2023-12-20T05:27:00;6.60;99.90
19829;DHT22;10075;50.924;4.396;2023-12-20T05:29:27;6.70;99.90
19829;DHT22;10075;50.924;4.396;2023-12-20T05:31:55;6.90;99.90
19829;DHT22;10075;50.924;4.396;2023-12-20T05:34:22;6.90;99.90
19829;DHT22;10075;50.924;4.396;2023-12-20T05:36:49;7.00;99.90
19829;DHT22;10075;50.924;4.396;2023-12-20T05:39:17;7.10;99.90
19829;DHT22;10075;50.924;4.396;2023-12-20T05:41:43;7.10;99.90
19829;DHT22;10075;50.924;4.396;2023-12-20T05:44:10;6.90;99.90
19829;DHT22;10075;50.924;4.396;2023-12-20T05:46:37;6.90;99.90
19829;DHT22;10075;50.924;4.396;2023-12-20T05:49:06;6.80;99.90
19829;DHT22;10075;50.924;4.396;2023-12-20T05:51:33;6.70;99.90
19829;DHT22;10075;50.924;4.396;2023-12-20T05:54:00;6.80;99.90
19829;DHT22;10075;50.924;4.396;2023-12-20T05:56:27;6.80;99.90
19829;DHT22;10075;50.924;4.396;2023-12-20T05:58:54;6.80;99.90
19829;DHT22;10075;50.924;4.396;2023-12-20T06:01:21;6.80;99.90
19829;DHT22;10075;50.924;4.396;2023-12-20T06:03:48;6.90;99.90
19829;DHT22;10075;50.924;4.396;2023-12-20T06:06:16;6.80;99.90
19829;DHT22;10075;50.924;4.396;2023-12-20T06:08:43;6.80;99.90
19829;DHT22;10075;50.924;4.396;2023-12-20T06:11:10;6.80;99.90
19829;DHT22;10075;50.924;4.396;2023-12-20T06:13:37;6.80;99.90
19829;DHT22;10075;50.924;4.396;2023-12-20T06:16:05;7.00;99.90
19829;DHT22;10075;50.924;4.396;2023-12-20T06:18:32;6.90;99.90
19829;DHT22;10075;50.924;4.396;2023-12-20T06:20:59;6.90;99.90
19829;DHT22;10075;50.924;4.396;2023-12-20T06:23:28;7.10;99.90
19829;DHT22;10075;50.924;4.396;2023-12-20T06:25:55;7.00;99.90
19829;DHT22;10075;50.924;4.396;2023-12-20T06:28:22;6.90;99.90
19829;DHT22;10075;50.924;4.396;2023-12-20T06:30:49;6.90;99.90
19829;DHT22;10075;50.924;4.396;2023-12-20T06:33:17;6.90;99.90
19829;DHT22;10075;50.924;4.396;2023-12-20T06:35:47;7.00;99.90
19829;DHT22;10075;50.924;4.396;2023-12-20T06:38:13;7.00;99.90
19829;DHT22;10075;50.924;4.396;2023-12-20T06:40:42;7.00;99.90
19829;DHT22;10075;50.924;4.396;2023-12-20T06:43:09;7.00;99.90
19829;DHT22;10075;50.924;4.396;2023-12-20T06:45:36;7.00;99.90
19829;DHT22;10075;50.924;4.396;2023-12-20T06:48:03;7.00;99.90
19829;DHT22;10075;50.924;4.396;2023-12-20T06:50:30;6.90;99.90
19829;DHT22;10075;50.924;4.396;2023-12-20T06:52:57;6.90;99.90
19829;DHT22;10075;50.924;4.396;2023-12-20T06:55:24;6.70;99.90
19829;DHT22;10075;50.924;4.396;2023-12-20T06:57:52;6.70;99.90
19829;DHT22;10075;50.924;4.396;2023-12-20T07:00:20;6.80;99.90
19829;DHT22;10075;50.924;4.396;2023-12-20T07:02:47;6.90;99.90
19829;DHT22;10075;50.924;4.396;2023-12-20T07:05:16;6.80;99.90
19829;DHT22;10075;50.924;4.396;2023-12-20T07:07:45;6.70;99.90
19829;DHT22;10075;50.924;4.396;2023-12-20T07:10:12;6.60;99.90
19829;DHT22;10075;50.924;4.396;2023-12-20T07:12:39;6.60;99.90
19829;DHT22;10075;50.924;4.396;2023-12-20T07:15:08;6.60;99.90
19829;DHT22;10075;50.924;4.396;2023-12-20T07:17:35;6.70;99.90
19829;DHT22;10075;50.924;4.396;2023-12-20T07:20:02;6.60;99.90
19829;DHT22;10075;50.924;4.396;2023-12-20T07:22:29;6.70;99.90
19829;DHT22;10075;50.924;4.396;2023-12-20T07:24:57;6.60;99.90
19829;DHT22;10075;50.924;4.396;2023-12-20T07:27:24;6.60;99.90
19829;DHT22;10075;50.924;4.396;2023-12-20T07:29:51;6.60;99.90
19829;DHT22;10075;50.924;4.396;2023-12-20T07:32:19;6.50;99.90
19829;DHT22;10075;50.924;4.396;2023-12-20T07:34:46;6.40;99.90
19829;DHT22;10075;50.924;4.396;2023-12-20T07:37:13;6.40;99.90
19829;DHT22;10075;50.924;4.396;2023-12-20T07:39:40;6.40;99.90
19829;DHT22;10075;50.924;4.396;2023-12-20T07:42:08;6.50;99.90
19829;DHT22;10075;50.924;4.396;2023-12-20T07:44:35;6.50;99.90
19829;DHT22;10075;50.924;4.396;2023-12-20T07:47:02;6.60;99.90
19829;DHT22;10075;50.924;4.396;2023-12-20T07:49:30;6.50;99.90
19829;DHT22;10075;50.924;4.396;2023-12-20T07:51:57;6.50;99.90
19829;DHT22;10075;50.924;4.396;2023-12-20T07:54:24;6.60;99.90
19829;DHT22;10075;50.924;4.396;2023-12-20T07:56:51;6.50;99.90
19829;DHT22;10075;50.924;4.396;2023-12-20T07:59:18;6.50;99.90
19829;DHT22;10075;50.924;4.396;2023-12-20T08:01:45;6.40;99.90
19829;DHT22;10075;50.924;4.396;2023-12-20T08:04:12;6.40;99.90
19829;DHT22;10075;50.924;4.396;2023-12-20T08:06:40;6.50;99.90
19829;DHT22;10075;50.924;4.396;2023-12-20T08:09:07;6.50;99.90
19829;DHT22;10075;50.924;4.396;2023-12-20T08:11:34;6.60;99.90
19829;DHT22;10075;50.924;4.396;2023-12-20T08:14:01;6.60;99.90
19829;DHT22;10075;50.924;4.396;2023-12-20T08:16:27;6.60;99.90
19829;DHT22;10075;50.924;4.396;2023-12-20T08:18:54;6.50;99.90
19829;DHT22;10075;50.924;4.396;2023-12-20T08:21:21;6.50;99.90
19829;DHT22;10075;50.924;4.396;2023-12-20T08:23:50;6.50;99.90
19829;DHT22;10075;50.924;4.396;2023-12-20T08:26:19;6.60;99.90
19829;DHT22;10075;50.924;4.396;2023-12-20T08:28:47;6.70;99.90
19829;DHT22;10075;50.924;4.396;2023-12-20T08:31:14;6.80;99.90
19829;DHT22;10075;50.924;4.396;2023-12-20T08:33:44;6.80;99.90
19829;DHT22;10075;50.924;4.396;2023-12-20T08:36:11;6.90;99.90
19829;DHT22;10075;50.924;4.396;2023-12-20T08:38:38;7.00;99.90
19829;DHT22;10075;50.924;4.396;2023-12-20T08:41:07;7.10;99.90
19829;DHT22;10075;50.924;4.396;2023-12-20T08:43:34;7.10;99.90
19829;DHT22;10075;50.924;4.396;2023-12-20T08:46:04;7.10;99.90
19829;DHT22;10075;50.924;4.396;2023-12-20T08:48:31;7.00;99.90
19829;DHT22;10075;50.924;4.396;2023-12-20T08:50:58;7.00;99.90
19829;DHT22;10075;50.924;4.396;2023-12-20T08:53:26;7.00;99.90
19829;DHT22;10075;50.924;4.396;2023-12-20T08:55:53;7.00;99.90
19829;DHT22;10075;50.924;4.396;2023-12-20T08:58:21;7.00;99.90
19829;DHT22;10075;50.924;4.396;2023-12-20T09:00:48;6.90;99.90
19829;DHT22;10075;50.924;4.396;2023-12-20T09:03:15;7.00;99.90
19829;DHT22;10075;50.924;4.396;2023-12-20T09:05:42;7.00;99.90
19829;DHT22;10075;50.924;4.396;2023-12-20T09:08:09;6.90;99.90
19829;DHT22;10075;50.924;4.396;2023-12-20T09:10:36;6.80;99.90
19829;DHT22;10075;50.924;4.396;2023-12-20T09:13:04;6.90;99.90
19829;DHT22;10075;50.924;4.396;2023-12-20T09:15:32;6.80;99.90
19829;DHT22;10075;50.924;4.396;2023-12-20T09:17:59;6.80;99.90
19829;DHT22;10075;50.924;4.396;2023-12-20T09:20:26;6.90;99.90
19829;DHT22;10075;50.924;4.396;2023-12-20T09:22:53;7.00;99.90
19829;DHT22;10075;50.924;4.396;2023-12-20T09:25:20;7.10;99.90
19829;DHT22;10075;50.924;4.396;2023-12-20T09:27:48;7.00;99.90
19829;DHT22;10075;50.924;4.396;2023-12-20T09:30:15;7.00;99.90
19829;DHT22;10075;50.924;4.396;2023-12-20T09:32:44;7.10;99.90
19829;DHT22;10075;50.924;4.396;2023-12-20T09:35:11;7.10;99.90
19829;DHT22;10075;50.924;4.396;2023-12-20T09:37:39;7.20;99.90
19829;DHT22;10075;50.924;4.396;2023-12-20T09:40:11;7.40;99.90
19829;DHT22;10075;50.924;4.396;2023-12-20T09:42:57;7.60;99.90
19829;DHT22;10075;50.924;4.396;2023-12-20T09:45:25;7.70;99.90
19829;DHT22;10075;50.924;4.396;2023-12-20T09:47:53;7.70;99.90
19829;DHT22;10075;50.924;4.396;2023-12-20T09:50:21;8.00;99.90
19829;DHT22;10075;50.924;4.396;2023-12-20T09:52:50;8.20;99.90
19829;DHT22;10075;50.924;4.396;2023-12-20T09:55:18;8.20;99.90
19829;DHT22;10075;50.924;4.396;2023-12-20T09:57:45;7.90;99.90
19829;DHT22;10075;50.924;4.396;2023-12-20T10:00:13;8.00;99.90
19829;DHT22;10075;50.924;4.396;2023-12-20T10:02:45;8.10;99.90
19829;DHT22;10075;50.924;4.396;2023-12-20T10:05:17;8.20;99.90
19829;DHT22;10075;50.924;4.396;2023-12-20T10:07:46;8.20;99.90
19829;DHT22;10075;50.924;4.396;2023-12-20T10:10:13;8.20;99.90
19829;DHT22;10075;50.924;4.396;2023-12-20T10:12:40;8.20;99.90
19829;DHT22;10075;50.924;4.396;2023-12-20T10:15:07;8.20;99.90
19829;DHT22;10075;50.924;4.396;2023-12-20T10:17:36;8.30;99.90
19829;DHT22;10075;50.924;4.396;2023-12-20T10:20:04;8.40;99.90
19829;DHT22;10075;50.924;4.396;2023-12-20T10:22:37;8.30;99.90
19829;DHT22;10075;50.924;4.396;2023-12-20T10:25:05;8.30;99.90
19829;DHT22;10075;50.924;4.396;2023-12-20T10:27:32;8.50;99.90
19829;DHT22;10075;50.924;4.396;2023-12-20T10:29:59;8.40;99.90
19829;DHT22;10075;50.924;4.396;2023-12-20T10:32:27;8.30;99.90
19829;DHT22;10075;50.924;4.396;2023-12-20T10:34:55;8.30;99.90
19829;DHT22;10075;50.924;4.396;2023-12-20T10:37:22;8.40;99.90
19829;DHT22;10075;50.924;4.396;2023-12-20T10:39:52;8.50;99.90
19829;DHT22;10075;50.924;4.396;2023-12-20T10:42:22;8.50;99.90
19829;DHT22;10075;50.924;4.396;2023-12-20T10:44:49;8.40;99.90
19829;DHT22;10075;50.924;4.396;2023-12-20T10:47:17;8.50;99.90
19829;DHT22;10075;50.924;4.396;2023-12-20T10:49:45;8.50;99.90
19829;DHT22;10075;50.924;4.396;2023-12-20T10:52:12;8.60;99.90
19829;DHT22;10075;50.924;4.396;2023-12-20T10:54:40;8.60;99.90
19829;DHT22;10075;50.924;4.396;2023-12-20T10:57:08;8.70;99.90
19829;DHT22;10075;50.924;4.396;2023-12-20T10:59:37;8.70;99.90
19829;DHT22;10075;50.924;4.396;2023-12-20T11:02:04;8.80;99.90
19829;DHT22;10075;50.924;4.396;2023-12-20T11:04:37;8.90;99.90
19829;DHT22;10075;50.924;4.396;2023-12-20T11:07:13;9.10;99.90
19829;DHT22;10075;50.924;4.396;2023-12-20T11:09:47;9.20;99.90
19829;DHT22;10075;50.924;4.396;2023-12-20T11:12:19;9.10;99.90
19829;DHT22;10075;50.924;4.396;2023-12-20T11:14:52;9.20;99.90
19829;DHT22;10075;50.924;4.396;2023-12-20T11:17:19;9.20;99.90
19829;DHT22;10075;50.924;4.396;2023-12-20T11:20:06;9.10;99.90
19829;DHT22;10075;50.924;4.396;2023-12-20T11:22:33;9.10;99.90
19829;DHT22;10075;50.924;4.396;2023-12-20T11:25:04;9.10;99.90
19829;DHT22;10075;50.924;4.396;2023-12-20T11:27:33;9.00;99.90
19829;DHT22;10075;50.924;4.396;2023-12-20T11:30:03;9.20;99.90
19829;DHT22;10075;50.924;4.396;2023-12-20T11:32:34;9.40;99.90
19829;DHT22;10075;50.924;4.396;2023-12-20T11:35:16;9.30;99.90
19829;DHT22;10075;50.924;4.396;2023-12-20T11:37:43;9.10;99.90
19829;DHT22;10075;50.924;4.396;2023-12-20T11:40:15;8.90;99.90
19829;DHT22;10075;50.924;4.396;2023-12-20T11:42:44;8.90;99.90
19829;DHT22;10075;50.924;4.396;2023-12-20T11:45:14;8.80;99.90
19829;DHT22;10075;50.924;4.396;2023-12-20T11:47:43;8.90;99.90
19829;DHT22;10075;50.924;4.396;2023-12-20T11:50:12;8.90;99.90
19829;DHT22;10075;50.924;4.396;2023-12-20T11:52:39;8.90;99.90
19829;DHT22;10075;50.924;4.396;2023-12-20T11:55:06;8.90;99.90
19829;DHT22;10075;50.924;4.396;2023-12-20T11:57:33;9.00;99.90
19829;DHT22;10075;50.924;4.396;2023-12-20T12:00:03;8.90;99.90
19829;DHT22;10075;50.924;4.396;2023-12-20T12:02:30;9.10;99.90
19829;DHT22;10075;50.924;4.396;2023-12-20T12:04:57;9.20;99.90
19829;DHT22;10075;50.924;4.396;2023-12-20T12:07:24;9.40;99.90
19829;DHT22;10075;50.924;4.396;2023-12-20T12:09:52;9.40;99.90
19829;DHT22;10075;50.924;4.396;2023-12-20T12:12:19;9.50;99.90
19829;DHT22;10075;50.924;4.396;2023-12-20T12:14:46;9.50;99.90
19829;DHT22;10075;50.924;4.396;2023-12-20T12:17:15;9.40;99.90
19829;DHT22;10075;50.924;4.396;2023-12-20T12:19:43;9.40;99.90
19829;DHT22;10075;50.924;4.396;2023-12-20T12:22:11;9.30;99.90
19829;DHT22;10075;50.924;4.396;2023-12-20T12:24:39;9.30;99.90
19829;DHT22;10075;50.924;4.396;2023-12-20T12:27:07;9.30;99.90
19829;DHT22;10075;50.924;4.396;2023-12-20T12:29:34;9.30;99.90
19829;DHT22;10075;50.924;4.396;2023-12-20T12:32:01;9.30;99.90
19829;DHT22;10075;50.924;4.396;2023-12-20T12:34:32;9.20;99.90
19829;DHT22;10075;50.924;4.396;2023-12-20T12:37:00;9.20;99.90
19829;DHT22;10075;50.924;4.396;2023-12-20T12:39:27;9.20;99.90
19829;DHT22;10075;50.924;4.396;2023-12-20T12:41:55;9.20;99.90
19829;DHT22;10075;50.924;4.396;2023-12-20T12:44:22;9.40;99.90
19829;DHT22;10075;50.924;4.396;2023-12-20T12:46:50;9.30;99.90
19829;DHT22;10075;50.924;4.396;2023-12-20T12:49:19;9.30;99.90
19829;DHT22;10075;50.924;4.396;2023-12-20T12:51:48;9.50;99.90
19829;DHT22;10075;50.924;4.396;2023-12-20T12:54:15;9.60;99.90
19829;DHT22;10075;50.924;4.396;2023-12-20T12:56:44;9.60;99.90
19829;DHT22;10075;50.924;4.396;2023-12-20T12:59:12;9.80;99.90
19829;DHT22;10075;50.924;4.396;2023-12-20T13:01:39;10.00;99.90
19829;DHT22;10075;50.924;4.396;2023-12-20T13:04:06;10.00;99.90
19829;DHT22;10075;50.924;4.396;2023-12-20T13:06:36;9.90;99.90
19829;DHT22;10075;50.924;4.396;2023-12-20T13:09:04;9.80;99.90
19829;DHT22;10075;50.924;4.396;2023-12-20T13:11:32;9.80;99.90
19829;DHT22;10075;50.924;4.396;2023-12-20T13:13:59;9.50;99.90
19829;DHT22;10075;50.924;4.396;2023-12-20T13:16:26;9.50;99.90
19829;DHT22;10075;50.924;4.396;2023-12-20T13:18:53;9.60;99.90
19829;DHT22;10075;50.924;4.396;2023-12-20T13:21:20;9.50;99.90
19829;DHT22;10075;50.924;4.396;2023-12-20T13:23:46;9.50;99.90
19829;DHT22;10075;50.924;4.396;2023-12-20T13:26:15;9.50;99.90
19829;DHT22;10075;50.924;4.396;2023-12-20T13:28:43;9.50;99.90
19829;DHT22;10075;50.924;4.396;2023-12-20T13:31:10;9.60;99.90
19829;DHT22;10075;50.924;4.396;2023-12-20T13:33:37;9.70;99.90
19829;DHT22;10075;50.924;4.396;2023-12-20T13:36:04;9.80;99.90
19829;DHT22;10075;50.924;4.396;2023-12-20T13:38:31;9.90;99.90
19829;DHT22;10075;50.924;4.396;2023-12-20T13:40:58;9.80;99.90
19829;DHT22;10075;50.924;4.396;2023-12-20T13:43:27;9.90;99.90
19829;DHT22;10075;50.924;4.396;2023-12-20T13:45:54;9.90;99.90
19829;DHT22;10075;50.924;4.396;2023-12-20T13:48:21;10.00;99.90
19829;DHT22;10075;50.924;4.396;2023-12-20T13:50:48;9.90;99.90
19829;DHT22;10075;50.924;4.396;2023-12-20T13:53:15;9.90;99.90
19829;DHT22;10075;50.924;4.396;2023-12-20T13:55:42;9.90;99.90
19829;DHT22;10075;50.924;4.396;2023-12-20T13:58:09;9.80;99.90
19829;DHT22;10075;50.924;4.396;2023-12-20T14:00:38;9.90;99.90
19829;DHT22;10075;50.924;4.396;2023-12-20T14:03:05;9.80;99.90
19829;DHT22;10075;50.924;4.396;2023-12-20T14:05:32;9.90;99.90
19829;DHT22;10075;50.924;4.396;2023-12-20T14:07:59;10.00;99.90
19829;DHT22;10075;50.924;4.396;2023-12-20T14:10:26;10.00;99.90
19829;DHT22;10075;50.924;4.396;2023-12-20T14:12:53;10.00;99.90
19829;DHT22;10075;50.924;4.396;2023-12-20T14:15:20;10.00;99.90
19829;DHT22;10075;50.924;4.396;2023-12-20T14:17:52;10.00;99.90
19829;DHT22;10075;50.924;4.396;2023-12-20T14:20:20;9.80;99.90
19829;DHT22;10075;50.924;4.396;2023-12-20T14:22:47;9.80;99.90
19829;DHT22;10075;50.924;4.396;2023-12-20T14:25:14;9.80;99.90
19829;DHT22;10075;50.924;4.396;2023-12-20T14:27:41;9.90;99.90
19829;DHT22;10075;50.924;4.396;2023-12-20T14:30:10;10.00;99.90
19829;DHT22;10075;50.924;4.396;2023-12-20T14:32:39;9.90;99.90
19829;DHT22;10075;50.924;4.396;2023-12-20T14:35:08;9.90;99.90
19829;DHT22;10075;50.924;4.396;2023-12-20T14:37:35;9.90;99.90
19829;DHT22;10075;50.924;4.396;2023-12-20T14:40:05;9.90;99.90
19829;DHT22;10075;50.924;4.396;2023-12-20T14:42:36;10.00;99.90
19829;DHT22;10075;50.924;4.396;2023-12-20T14:45:04;10.10;99.90
19829;DHT22;10075;50.924;4.396;2023-12-20T14:47:31;10.00;99.90
19829;DHT22;10075;50.924;4.396;2023-12-20T14:49:57;10.10;99.90
19829;DHT22;10075;50.924;4.396;2023-12-20T14:52:26;10.20;99.90
19829;DHT22;10075;50.924;4.396;2023-12-20T14:54:53;10.20;99.90
19829;DHT22;10075;50.924;4.396;2023-12-20T14:57:20;10.30;99.90
19829;DHT22;10075;50.924;4.396;2023-12-20T14:59:46;10.30;99.90
19829;DHT22;10075;50.924;4.396;2023-12-20T15:02:13;10.30;99.90
19829;DHT22;10075;50.924;4.396;2023-12-20T15:04:41;10.30;99.90
19829;DHT22;10075;50.924;4.396;2023-12-20T15:07:08;10.30;99.90
19829;DHT22;10075;50.924;4.396;2023-12-20T15:09:36;10.40;99.90
19829;DHT22;10075;50.924;4.396;2023-12-20T15:12:04;10.40;99.90
19829;DHT22;10075;50.924;4.396;2023-12-20T15:14:31;10.30;99.90
19829;DHT22;10075;50.924;4.396;2023-12-20T15:16:58;10.30;99.90
19829;DHT22;10075;50.924;4.396;2023-12-20T15:19:25;10.30;99.90
19829;DHT22;10075;50.924;4.396;2023-12-20T15:21:51;10.30;99.90
19829;DHT22;10075;50.924;4.396;2023-12-20T15:24:18;10.30;99.90
19829;DHT22;10075;50.924;4.396;2023-12-20T15:26:54;10.40;99.90
19829;DHT22;10075;50.924;4.396;2023-12-20T15:29:21;10.50;99.90
19829;DHT22;10075;50.924;4.396;2023-12-20T15:31:48;10.20;99.90
19829;DHT22;10075;50.924;4.396;2023-12-20T15:34:15;10.20;99.90
19829;DHT22;10075;50.924;4.396;2023-12-20T15:36:42;10.30;99.90
19829;DHT22;10075;50.924;4.396;2023-12-20T15:39:09;10.60;99.90
19829;DHT22;10075;50.924;4.396;2023-12-20T15:41:40;10.50;99.90
19829;DHT22;10075;50.924;4.396;2023-12-20T15:44:08;10.40;99.90
19829;DHT22;10075;50.924;4.396;2023-12-20T15:46:35;10.30;99.90